<?xml version="1.0" encoding="utf-8"?>
<gpx xmlns:xsi="http://www.w3.org/2001/XMLSchema-instance" xmlns:xsd="http://www.w3.org/2001/XMLSchema" version="1.1" creator="Shapelink.com" xmlns="http://www.topografix.com/GPX/1/1" xmlns:gpxtpx="http://www.garmin.com/xmlschemas/TrackPointExtension/v1">
  <metadata>
    <name>Gåing 3.15 km, 2012-08-11</name>
    <desc></desc>
    <author><name>Mikael Blom</name></author> 
    <time>2012-08-11T15:54:57Z</time>
  </metadata>
  <trk>
    <name>Gåing 3.15 km, 2012-08-11</name>
    <trkseg>
      <trkpt lat="59.9788796" lon="17.7393864">
        <ele>30.8995</ele>
        <time>2012-08-11T15:54:57Z</time>
      </trkpt>
      <trkpt lat="59.9790101" lon="17.7392911">
        <ele>32.8223</ele>
        <time>2012-08-11T15:55:04Z</time>
      </trkpt>
      <trkpt lat="59.9791562" lon="17.7391766">
        <ele>33.7834</ele>
        <time>2012-08-11T15:55:13Z</time>
      </trkpt>
      <trkpt lat="59.9792687" lon="17.7390961">
        <ele>33.7834</ele>
        <time>2012-08-11T15:55:20Z</time>
      </trkpt>
      <trkpt lat="59.9793231" lon="17.7390393">
        <ele>32.8223</ele>
        <time>2012-08-11T15:55:25Z</time>
      </trkpt>
      <trkpt lat="59.9794043" lon="17.7390067">
        <ele>33.3029</ele>
        <time>2012-08-11T15:55:31Z</time>
      </trkpt>
      <trkpt lat="59.9795007" lon="17.7389511">
        <ele>34.2642</ele>
        <time>2012-08-11T15:55:38Z</time>
      </trkpt>
      <trkpt lat="59.9796093" lon="17.7388951">
        <ele>35.2255</ele>
        <time>2012-08-11T15:55:43Z</time>
      </trkpt>
      <trkpt lat="59.9796825" lon="17.7388393">
        <ele>33.7834</ele>
        <time>2012-08-11T15:55:48Z</time>
      </trkpt>
      <trkpt lat="59.9797509" lon="17.7387783">
        <ele>28.0155</ele>
        <time>2012-08-11T15:55:53Z</time>
      </trkpt>
      <trkpt lat="59.9798446" lon="17.738785">
        <ele>33.3029</ele>
        <time>2012-08-11T15:55:59Z</time>
      </trkpt>
      <trkpt lat="59.9799388" lon="17.7387805">
        <ele>33.3029</ele>
        <time>2012-08-11T15:56:06Z</time>
      </trkpt>
      <trkpt lat="59.9800735" lon="17.7387912">
        <ele>39.5513</ele>
        <time>2012-08-11T15:56:12Z</time>
      </trkpt>
      <trkpt lat="59.9801938" lon="17.7388088">
        <ele>40.5128</ele>
        <time>2012-08-11T15:56:19Z</time>
      </trkpt>
      <trkpt lat="59.9802553" lon="17.7387927">
        <ele>37.6287</ele>
        <time>2012-08-11T15:56:23Z</time>
      </trkpt>
      <trkpt lat="59.9803337" lon="17.7387881">
        <ele>37.6287</ele>
        <time>2012-08-11T15:56:28Z</time>
      </trkpt>
      <trkpt lat="59.9803818" lon="17.7388358">
        <ele>39.0707</ele>
        <time>2012-08-11T15:56:33Z</time>
      </trkpt>
      <trkpt lat="59.9804998" lon="17.7387726">
        <ele>40.0321</ele>
        <time>2012-08-11T15:56:40Z</time>
      </trkpt>
      <trkpt lat="59.9805791" lon="17.7387435">
        <ele>37.6287</ele>
        <time>2012-08-11T15:56:45Z</time>
      </trkpt>
      <trkpt lat="59.9806594" lon="17.7387181">
        <ele>38.5901</ele>
        <time>2012-08-11T15:56:49Z</time>
      </trkpt>
      <trkpt lat="59.98076" lon="17.7386072">
        <ele>43.8773</ele>
        <time>2012-08-11T15:56:55Z</time>
      </trkpt>
      <trkpt lat="59.9808422" lon="17.7386475">
        <ele>44.8386</ele>
        <time>2012-08-11T15:57:00Z</time>
      </trkpt>
      <trkpt lat="59.9809522" lon="17.7386103">
        <ele>40.9934</ele>
        <time>2012-08-11T15:57:07Z</time>
      </trkpt>
      <trkpt lat="59.981019" lon="17.7385887">
        <ele>36.1868</ele>
        <time>2012-08-11T15:57:13Z</time>
      </trkpt>
      <trkpt lat="59.981078" lon="17.7385478">
        <ele>28.4962</ele>
        <time>2012-08-11T15:57:20Z</time>
      </trkpt>
      <trkpt lat="59.9811769" lon="17.7385204">
        <ele>29.4575</ele>
        <time>2012-08-11T15:57:26Z</time>
      </trkpt>
      <trkpt lat="59.9813074" lon="17.7384649">
        <ele>31.8607</ele>
        <time>2012-08-11T15:57:33Z</time>
      </trkpt>
      <trkpt lat="59.9814252" lon="17.7384179">
        <ele>35.2255</ele>
        <time>2012-08-11T15:57:39Z</time>
      </trkpt>
      <trkpt lat="59.9815125" lon="17.738413">
        <ele>36.1868</ele>
        <time>2012-08-11T15:57:45Z</time>
      </trkpt>
      <trkpt lat="59.9815909" lon="17.7384079">
        <ele>36.1868</ele>
        <time>2012-08-11T15:57:52Z</time>
      </trkpt>
      <trkpt lat="59.9816899" lon="17.7383714">
        <ele>36.1868</ele>
        <time>2012-08-11T15:57:59Z</time>
      </trkpt>
      <trkpt lat="59.981809" lon="17.7383205">
        <ele>38.5901</ele>
        <time>2012-08-11T15:58:06Z</time>
      </trkpt>
      <trkpt lat="59.9818979" lon="17.7382872">
        <ele>40.5128</ele>
        <time>2012-08-11T15:58:12Z</time>
      </trkpt>
      <trkpt lat="59.9819134" lon="17.7382919">
        <ele>40.9934</ele>
        <time>2012-08-11T15:58:13Z</time>
      </trkpt>
      <trkpt lat="59.9819436" lon="17.7382845">
        <ele>40.9934</ele>
        <time>2012-08-11T15:58:15Z</time>
      </trkpt>
      <trkpt lat="59.9820559" lon="17.7382422">
        <ele>38.5901</ele>
        <time>2012-08-11T15:58:22Z</time>
      </trkpt>
      <trkpt lat="59.9820711" lon="17.7382362">
        <ele>38.5901</ele>
        <time>2012-08-11T15:58:23Z</time>
      </trkpt>
      <trkpt lat="59.9821109" lon="17.7382321">
        <ele>41.474</ele>
        <time>2012-08-11T15:58:25Z</time>
      </trkpt>
      <trkpt lat="59.9821767" lon="17.7381747">
        <ele>42.4354</ele>
        <time>2012-08-11T15:58:29Z</time>
      </trkpt>
      <trkpt lat="59.9822401" lon="17.7381484">
        <ele>43.8773</ele>
        <time>2012-08-11T15:58:34Z</time>
      </trkpt>
      <trkpt lat="59.9823487" lon="17.7381506">
        <ele>47.7225</ele>
        <time>2012-08-11T15:58:41Z</time>
      </trkpt>
      <trkpt lat="59.9824497" lon="17.7381815">
        <ele>53.9712</ele>
        <time>2012-08-11T15:58:47Z</time>
      </trkpt>
      <trkpt lat="59.9824559" lon="17.7381844">
        <ele>53.0098</ele>
        <time>2012-08-11T15:58:48Z</time>
      </trkpt>
      <trkpt lat="59.9825029" lon="17.7381821">
        <ele>48.684</ele>
        <time>2012-08-11T15:58:52Z</time>
      </trkpt>
      <trkpt lat="59.9826357" lon="17.7381722">
        <ele>48.684</ele>
        <time>2012-08-11T15:58:59Z</time>
      </trkpt>
      <trkpt lat="59.9827719" lon="17.7382037">
        <ele>53.4905</ele>
        <time>2012-08-11T15:59:05Z</time>
      </trkpt>
      <trkpt lat="59.9828515" lon="17.7381868">
        <ele>52.0486</ele>
        <time>2012-08-11T15:59:10Z</time>
      </trkpt>
      <trkpt lat="59.9829092" lon="17.7382015">
        <ele>48.684</ele>
        <time>2012-08-11T15:59:15Z</time>
      </trkpt>
      <trkpt lat="59.9829818" lon="17.7381938">
        <ele>44.358</ele>
        <time>2012-08-11T15:59:20Z</time>
      </trkpt>
      <trkpt lat="59.9830748" lon="17.7382292">
        <ele>42.4354</ele>
        <time>2012-08-11T15:59:26Z</time>
      </trkpt>
      <trkpt lat="59.983189" lon="17.7381374">
        <ele>40.9934</ele>
        <time>2012-08-11T15:59:32Z</time>
      </trkpt>
      <trkpt lat="59.9832137" lon="17.7381209">
        <ele>41.9547</ele>
        <time>2012-08-11T15:59:33Z</time>
      </trkpt>
      <trkpt lat="59.9833287" lon="17.7380689">
        <ele>41.9547</ele>
        <time>2012-08-11T15:59:39Z</time>
      </trkpt>
      <trkpt lat="59.9833838" lon="17.7381002">
        <ele>43.8773</ele>
        <time>2012-08-11T15:59:43Z</time>
      </trkpt>
      <trkpt lat="59.9834785" lon="17.738108">
        <ele>49.1646</ele>
        <time>2012-08-11T15:59:49Z</time>
      </trkpt>
      <trkpt lat="59.983492" lon="17.7381339">
        <ele>56.8551</ele>
        <time>2012-08-11T15:59:54Z</time>
      </trkpt>
      <trkpt lat="59.9836686" lon="17.7381124">
        <ele>64.0651</ele>
        <time>2012-08-11T16:00:00Z</time>
      </trkpt>
      <trkpt lat="59.983836" lon="17.7380836">
        <ele>71.2749</ele>
        <time>2012-08-11T16:00:05Z</time>
      </trkpt>
      <trkpt lat="59.9838628" lon="17.7381005">
        <ele>72.2362</ele>
        <time>2012-08-11T16:00:08Z</time>
      </trkpt>
      <trkpt lat="59.9838861" lon="17.7381515">
        <ele>72.7169</ele>
        <time>2012-08-11T16:00:11Z</time>
      </trkpt>
      <trkpt lat="59.983955" lon="17.7381399">
        <ele>70.3135</ele>
        <time>2012-08-11T16:00:16Z</time>
      </trkpt>
      <trkpt lat="59.9840228" lon="17.7381509">
        <ele>72.7169</ele>
        <time>2012-08-11T16:00:22Z</time>
      </trkpt>
      <trkpt lat="59.9840565" lon="17.7381712">
        <ele>66.949</ele>
        <time>2012-08-11T16:00:26Z</time>
      </trkpt>
      <trkpt lat="59.9841213" lon="17.7381194">
        <ele>52.0486</ele>
        <time>2012-08-11T16:00:32Z</time>
      </trkpt>
      <trkpt lat="59.9841779" lon="17.738105">
        <ele>45.3192</ele>
        <time>2012-08-11T16:00:36Z</time>
      </trkpt>
      <trkpt lat="59.9842756" lon="17.738096">
        <ele>42.4354</ele>
        <time>2012-08-11T16:00:41Z</time>
      </trkpt>
      <trkpt lat="59.9843066" lon="17.7380856">
        <ele>40.5128</ele>
        <time>2012-08-11T16:00:43Z</time>
      </trkpt>
      <trkpt lat="59.9844701" lon="17.738095">
        <ele>44.8386</ele>
        <time>2012-08-11T16:00:49Z</time>
      </trkpt>
      <trkpt lat="59.9845383" lon="17.7380085">
        <ele>46.2806</ele>
        <time>2012-08-11T16:00:54Z</time>
      </trkpt>
      <trkpt lat="59.9845529" lon="17.737997">
        <ele>45.7999</ele>
        <time>2012-08-11T16:00:55Z</time>
      </trkpt>
      <trkpt lat="59.9846641" lon="17.738066">
        <ele>43.3966</ele>
        <time>2012-08-11T16:01:02Z</time>
      </trkpt>
      <trkpt lat="59.9846799" lon="17.738078">
        <ele>42.4354</ele>
        <time>2012-08-11T16:01:03Z</time>
      </trkpt>
      <trkpt lat="59.9847114" lon="17.7381532">
        <ele>34.2642</ele>
        <time>2012-08-11T16:01:07Z</time>
      </trkpt>
      <trkpt lat="59.9848287" lon="17.7382147">
        <ele>33.3029</ele>
        <time>2012-08-11T16:01:14Z</time>
      </trkpt>
      <trkpt lat="59.9848593" lon="17.7382275">
        <ele>32.8223</ele>
        <time>2012-08-11T16:01:16Z</time>
      </trkpt>
      <trkpt lat="59.9849652" lon="17.7382328">
        <ele>34.2642</ele>
        <time>2012-08-11T16:01:22Z</time>
      </trkpt>
      <trkpt lat="59.9850549" lon="17.7382208">
        <ele>35.7061</ele>
        <time>2012-08-11T16:01:27Z</time>
      </trkpt>
      <trkpt lat="59.9851316" lon="17.7382095">
        <ele>36.1868</ele>
        <time>2012-08-11T16:01:32Z</time>
      </trkpt>
      <trkpt lat="59.9852255" lon="17.7382497">
        <ele>38.5901</ele>
        <time>2012-08-11T16:01:39Z</time>
      </trkpt>
      <trkpt lat="59.9852905" lon="17.7382784">
        <ele>38.5901</ele>
        <time>2012-08-11T16:01:43Z</time>
      </trkpt>
      <trkpt lat="59.9853887" lon="17.7383143">
        <ele>39.5513</ele>
        <time>2012-08-11T16:01:49Z</time>
      </trkpt>
      <trkpt lat="59.9854281" lon="17.7383472">
        <ele>39.0707</ele>
        <time>2012-08-11T16:01:52Z</time>
      </trkpt>
      <trkpt lat="59.9855397" lon="17.7384042">
        <ele>36.1868</ele>
        <time>2012-08-11T16:01:59Z</time>
      </trkpt>
      <trkpt lat="59.9855617" lon="17.738408">
        <ele>37.6287</ele>
        <time>2012-08-11T16:02:00Z</time>
      </trkpt>
      <trkpt lat="59.9856081" lon="17.7384334">
        <ele>39.0707</ele>
        <time>2012-08-11T16:02:03Z</time>
      </trkpt>
      <trkpt lat="59.9857118" lon="17.73856">
        <ele>47.2418</ele>
        <time>2012-08-11T16:02:09Z</time>
      </trkpt>
      <trkpt lat="59.9857655" lon="17.7385997">
        <ele>51.0872</ele>
        <time>2012-08-11T16:02:12Z</time>
      </trkpt>
      <trkpt lat="59.9858568" lon="17.7386905">
        <ele>56.3745</ele>
        <time>2012-08-11T16:02:18Z</time>
      </trkpt>
      <trkpt lat="59.9860197" lon="17.7387225">
        <ele>56.3745</ele>
        <time>2012-08-11T16:02:25Z</time>
      </trkpt>
      <trkpt lat="59.9861788" lon="17.7387747">
        <ele>61.6617</ele>
        <time>2012-08-11T16:02:31Z</time>
      </trkpt>
      <trkpt lat="59.9862518" lon="17.7389425">
        <ele>65.9877</ele>
        <time>2012-08-11T16:02:38Z</time>
      </trkpt>
      <trkpt lat="59.9864124" lon="17.7390063">
        <ele>69.8329</ele>
        <time>2012-08-11T16:02:44Z</time>
      </trkpt>
      <trkpt lat="59.9865336" lon="17.7390495">
        <ele>67.4297</ele>
        <time>2012-08-11T16:02:51Z</time>
      </trkpt>
      <trkpt lat="59.9865829" lon="17.7391306">
        <ele>67.9103</ele>
        <time>2012-08-11T16:02:56Z</time>
      </trkpt>
      <trkpt lat="59.9866162" lon="17.7392127">
        <ele>60.7003</ele>
        <time>2012-08-11T16:03:03Z</time>
      </trkpt>
      <trkpt lat="59.986629" lon="17.7392321">
        <ele>61.6617</ele>
        <time>2012-08-11T16:03:04Z</time>
      </trkpt>
      <trkpt lat="59.9867336" lon="17.7393082">
        <ele>64.5457</ele>
        <time>2012-08-11T16:03:10Z</time>
      </trkpt>
      <trkpt lat="59.9867732" lon="17.7393424">
        <ele>63.5844</ele>
        <time>2012-08-11T16:03:13Z</time>
      </trkpt>
      <trkpt lat="59.986834" lon="17.7394227">
        <ele>58.7777</ele>
        <time>2012-08-11T16:03:20Z</time>
      </trkpt>
      <trkpt lat="59.9868731" lon="17.739416">
        <ele>55.8938</ele>
        <time>2012-08-11T16:03:23Z</time>
      </trkpt>
      <trkpt lat="59.98693" lon="17.7394605">
        <ele>55.8938</ele>
        <time>2012-08-11T16:03:27Z</time>
      </trkpt>
      <trkpt lat="59.9870477" lon="17.7395076">
        <ele>59.2584</ele>
        <time>2012-08-11T16:03:34Z</time>
      </trkpt>
      <trkpt lat="59.9871269" lon="17.7394951">
        <ele>51.0872</ele>
        <time>2012-08-11T16:03:40Z</time>
      </trkpt>
      <trkpt lat="59.9871402" lon="17.7394934">
        <ele>50.126</ele>
        <time>2012-08-11T16:03:41Z</time>
      </trkpt>
      <trkpt lat="59.9872482" lon="17.7394533">
        <ele>50.6066</ele>
        <time>2012-08-11T16:03:48Z</time>
      </trkpt>
      <trkpt lat="59.9872688" lon="17.739446">
        <ele>52.0486</ele>
        <time>2012-08-11T16:03:49Z</time>
      </trkpt>
      <trkpt lat="59.9874113" lon="17.7394012">
        <ele>52.5292</ele>
        <time>2012-08-11T16:03:56Z</time>
      </trkpt>
      <trkpt lat="59.9875322" lon="17.739341">
        <ele>47.2418</ele>
        <time>2012-08-11T16:04:03Z</time>
      </trkpt>
      <trkpt lat="59.9876266" lon="17.7393002">
        <ele>48.684</ele>
        <time>2012-08-11T16:04:08Z</time>
      </trkpt>
      <trkpt lat="59.9877293" lon="17.7393107">
        <ele>51.0872</ele>
        <time>2012-08-11T16:04:14Z</time>
      </trkpt>
      <trkpt lat="59.9878052" lon="17.7393389">
        <ele>55.4131</ele>
        <time>2012-08-11T16:04:18Z</time>
      </trkpt>
      <trkpt lat="59.9878883" lon="17.7393522">
        <ele>47.7225</ele>
        <time>2012-08-11T16:04:25Z</time>
      </trkpt>
      <trkpt lat="59.9879313" lon="17.7393257">
        <ele>45.7999</ele>
        <time>2012-08-11T16:04:28Z</time>
      </trkpt>
      <trkpt lat="59.987985" lon="17.7392451">
        <ele>47.7225</ele>
        <time>2012-08-11T16:04:32Z</time>
      </trkpt>
      <trkpt lat="59.9880451" lon="17.7392762">
        <ele>48.684</ele>
        <time>2012-08-11T16:04:36Z</time>
      </trkpt>
      <trkpt lat="59.9881619" lon="17.7392698">
        <ele>53.9712</ele>
        <time>2012-08-11T16:04:41Z</time>
      </trkpt>
      <trkpt lat="59.9882243" lon="17.7392693">
        <ele>53.0098</ele>
        <time>2012-08-11T16:04:46Z</time>
      </trkpt>
      <trkpt lat="59.9883456" lon="17.7392311">
        <ele>49.1646</ele>
        <time>2012-08-11T16:04:54Z</time>
      </trkpt>
      <trkpt lat="59.9884756" lon="17.7391528">
        <ele>53.0098</ele>
        <time>2012-08-11T16:04:59Z</time>
      </trkpt>
      <trkpt lat="59.9886283" lon="17.7390913">
        <ele>53.0098</ele>
        <time>2012-08-11T16:05:06Z</time>
      </trkpt>
      <trkpt lat="59.9887094" lon="17.7389555">
        <ele>47.2418</ele>
        <time>2012-08-11T16:05:13Z</time>
      </trkpt>
      <trkpt lat="59.9887632" lon="17.7389088">
        <ele>50.126</ele>
        <time>2012-08-11T16:05:16Z</time>
      </trkpt>
      <trkpt lat="59.9888063" lon="17.7388757">
        <ele>50.126</ele>
        <time>2012-08-11T16:05:20Z</time>
      </trkpt>
      <trkpt lat="59.9888683" lon="17.7388188">
        <ele>52.0486</ele>
        <time>2012-08-11T16:05:24Z</time>
      </trkpt>
      <trkpt lat="59.9889565" lon="17.7387432">
        <ele>53.9712</ele>
        <time>2012-08-11T16:05:30Z</time>
      </trkpt>
      <trkpt lat="59.9889767" lon="17.7387238">
        <ele>53.9712</ele>
        <time>2012-08-11T16:05:32Z</time>
      </trkpt>
      <trkpt lat="59.9890564" lon="17.7387033">
        <ele>56.8551</ele>
        <time>2012-08-11T16:05:36Z</time>
      </trkpt>
      <trkpt lat="59.989079" lon="17.7386839">
        <ele>54.4518</ele>
        <time>2012-08-11T16:05:38Z</time>
      </trkpt>
      <trkpt lat="59.9891844" lon="17.7386282">
        <ele>50.6066</ele>
        <time>2012-08-11T16:05:45Z</time>
      </trkpt>
      <trkpt lat="59.9892538" lon="17.738573">
        <ele>48.2034</ele>
        <time>2012-08-11T16:05:51Z</time>
      </trkpt>
      <trkpt lat="59.9892648" lon="17.7385623">
        <ele>47.7225</ele>
        <time>2012-08-11T16:05:52Z</time>
      </trkpt>
      <trkpt lat="59.9893176" lon="17.7385233">
        <ele>46.2806</ele>
        <time>2012-08-11T16:05:56Z</time>
      </trkpt>
      <trkpt lat="59.9893551" lon="17.7385227">
        <ele>47.2418</ele>
        <time>2012-08-11T16:05:58Z</time>
      </trkpt>
      <trkpt lat="59.9894082" lon="17.7385458">
        <ele>47.2418</ele>
        <time>2012-08-11T16:06:02Z</time>
      </trkpt>
      <trkpt lat="59.9895081" lon="17.7384639">
        <ele>46.7612</ele>
        <time>2012-08-11T16:06:07Z</time>
      </trkpt>
      <trkpt lat="59.9895256" lon="17.7384602">
        <ele>46.7612</ele>
        <time>2012-08-11T16:06:08Z</time>
      </trkpt>
      <trkpt lat="59.9896345" lon="17.7384256">
        <ele>46.2806</ele>
        <time>2012-08-11T16:06:14Z</time>
      </trkpt>
      <trkpt lat="59.9896681" lon="17.7384144">
        <ele>46.2806</ele>
        <time>2012-08-11T16:06:16Z</time>
      </trkpt>
      <trkpt lat="59.9897621" lon="17.7383855">
        <ele>43.8773</ele>
        <time>2012-08-11T16:06:23Z</time>
      </trkpt>
      <trkpt lat="59.9898578" lon="17.7383376">
        <ele>43.8773</ele>
        <time>2012-08-11T16:06:29Z</time>
      </trkpt>
      <trkpt lat="59.9899677" lon="17.7382827">
        <ele>46.2806</ele>
        <time>2012-08-11T16:06:34Z</time>
      </trkpt>
      <trkpt lat="59.9900602" lon="17.738208">
        <ele>45.3192</ele>
        <time>2012-08-11T16:06:40Z</time>
      </trkpt>
      <trkpt lat="59.9901841" lon="17.7382161">
        <ele>51.5679</ele>
        <time>2012-08-11T16:06:47Z</time>
      </trkpt>
      <trkpt lat="59.9902297" lon="17.7381868">
        <ele>50.126</ele>
        <time>2012-08-11T16:06:51Z</time>
      </trkpt>
      <trkpt lat="59.9903312" lon="17.7381555">
        <ele>50.6066</ele>
        <time>2012-08-11T16:06:57Z</time>
      </trkpt>
      <trkpt lat="59.9904577" lon="17.7380869">
        <ele>53.0098</ele>
        <time>2012-08-11T16:07:03Z</time>
      </trkpt>
      <trkpt lat="59.9905092" lon="17.7380539">
        <ele>47.2418</ele>
        <time>2012-08-11T16:07:08Z</time>
      </trkpt>
      <trkpt lat="59.9905373" lon="17.7380453">
        <ele>46.2806</ele>
        <time>2012-08-11T16:07:10Z</time>
      </trkpt>
      <trkpt lat="59.9906151" lon="17.7379638">
        <ele>40.9934</ele>
        <time>2012-08-11T16:07:16Z</time>
      </trkpt>
      <trkpt lat="59.9907073" lon="17.737906">
        <ele>44.358</ele>
        <time>2012-08-11T16:07:22Z</time>
      </trkpt>
      <trkpt lat="59.9908149" lon="17.7378075">
        <ele>52.5292</ele>
        <time>2012-08-11T16:07:27Z</time>
      </trkpt>
      <trkpt lat="59.9909353" lon="17.7377561">
        <ele>55.4131</ele>
        <time>2012-08-11T16:07:33Z</time>
      </trkpt>
      <trkpt lat="59.9910661" lon="17.7376766">
        <ele>59.7391</ele>
        <time>2012-08-11T16:07:39Z</time>
      </trkpt>
      <trkpt lat="59.9911141" lon="17.7376071">
        <ele>59.2584</ele>
        <time>2012-08-11T16:07:44Z</time>
      </trkpt>
      <trkpt lat="59.9912532" lon="17.7375407">
        <ele>66.4683</ele>
        <time>2012-08-11T16:07:51Z</time>
      </trkpt>
      <trkpt lat="59.9912853" lon="17.7375024">
        <ele>65.5071</ele>
        <time>2012-08-11T16:07:53Z</time>
      </trkpt>
      <trkpt lat="59.9913425" lon="17.7375693">
        <ele>65.0264</ele>
        <time>2012-08-11T16:07:59Z</time>
      </trkpt>
      <trkpt lat="59.9914119" lon="17.7376433">
        <ele>61.6617</ele>
        <time>2012-08-11T16:08:06Z</time>
      </trkpt>
      <trkpt lat="59.9914284" lon="17.7376742">
        <ele>59.2584</ele>
        <time>2012-08-11T16:08:08Z</time>
      </trkpt>
      <trkpt lat="59.9915205" lon="17.7376729">
        <ele>53.0098</ele>
        <time>2012-08-11T16:08:14Z</time>
      </trkpt>
      <trkpt lat="59.9916366" lon="17.7376427">
        <ele>46.2806</ele>
        <time>2012-08-11T16:08:21Z</time>
      </trkpt>
      <trkpt lat="59.9917791" lon="17.7376343">
        <ele>46.7612</ele>
        <time>2012-08-11T16:08:28Z</time>
      </trkpt>
      <trkpt lat="59.9918356" lon="17.7376168">
        <ele>45.7999</ele>
        <time>2012-08-11T16:08:31Z</time>
      </trkpt>
      <trkpt lat="59.9919163" lon="17.7375789">
        <ele>46.2806</ele>
        <time>2012-08-11T16:08:36Z</time>
      </trkpt>
      <trkpt lat="59.992034" lon="17.7375568">
        <ele>50.6066</ele>
        <time>2012-08-11T16:08:43Z</time>
      </trkpt>
      <trkpt lat="59.9920828" lon="17.7375366">
        <ele>52.5292</ele>
        <time>2012-08-11T16:08:46Z</time>
      </trkpt>
      <trkpt lat="59.9921272" lon="17.7375005">
        <ele>50.126</ele>
        <time>2012-08-11T16:08:50Z</time>
      </trkpt>
      <trkpt lat="59.9922304" lon="17.7374605">
        <ele>52.0486</ele>
        <time>2012-08-11T16:08:57Z</time>
      </trkpt>
      <trkpt lat="59.9923562" lon="17.7373891">
        <ele>53.9712</ele>
        <time>2012-08-11T16:09:02Z</time>
      </trkpt>
      <trkpt lat="59.9924386" lon="17.7373142">
        <ele>53.0098</ele>
        <time>2012-08-11T16:09:06Z</time>
      </trkpt>
      <trkpt lat="59.9925212" lon="17.7372117">
        <ele>49.1646</ele>
        <time>2012-08-11T16:09:12Z</time>
      </trkpt>
      <trkpt lat="59.9925794" lon="17.7371335">
        <ele>46.2806</ele>
        <time>2012-08-11T16:09:17Z</time>
      </trkpt>
      <trkpt lat="59.9926702" lon="17.737016">
        <ele>46.2806</ele>
        <time>2012-08-11T16:09:24Z</time>
      </trkpt>
      <trkpt lat="59.9927177" lon="17.7369361">
        <ele>46.2806</ele>
        <time>2012-08-11T16:09:28Z</time>
      </trkpt>
      <trkpt lat="59.9927953" lon="17.7367472">
        <ele>42.4354</ele>
        <time>2012-08-11T16:09:34Z</time>
      </trkpt>
      <trkpt lat="59.9928719" lon="17.736541">
        <ele>37.1481</ele>
        <time>2012-08-11T16:09:42Z</time>
      </trkpt>
      <trkpt lat="59.9929037" lon="17.736456">
        <ele>35.7061</ele>
        <time>2012-08-11T16:09:46Z</time>
      </trkpt>
      <trkpt lat="59.9929895" lon="17.7362752">
        <ele>38.5901</ele>
        <time>2012-08-11T16:09:53Z</time>
      </trkpt>
      <trkpt lat="59.9930222" lon="17.7362002">
        <ele>39.5513</ele>
        <time>2012-08-11T16:09:56Z</time>
      </trkpt>
      <trkpt lat="59.9930633" lon="17.7360763">
        <ele>41.9547</ele>
        <time>2012-08-11T16:10:02Z</time>
      </trkpt>
      <trkpt lat="59.9930921" lon="17.7360168">
        <ele>42.4354</ele>
        <time>2012-08-11T16:10:05Z</time>
      </trkpt>
      <trkpt lat="59.9931483" lon="17.7359001">
        <ele>43.8773</ele>
        <time>2012-08-11T16:10:10Z</time>
      </trkpt>
      <trkpt lat="59.9932197" lon="17.735799">
        <ele>47.2418</ele>
        <time>2012-08-11T16:10:16Z</time>
      </trkpt>
      <trkpt lat="59.9932378" lon="17.7357779">
        <ele>46.7612</ele>
        <time>2012-08-11T16:10:17Z</time>
      </trkpt>
      <trkpt lat="59.9933409" lon="17.7356298">
        <ele>47.7225</ele>
        <time>2012-08-11T16:10:25Z</time>
      </trkpt>
      <trkpt lat="59.9934538" lon="17.7355272">
        <ele>45.7999</ele>
        <time>2012-08-11T16:10:31Z</time>
      </trkpt>
      <trkpt lat="59.9935674" lon="17.7354553">
        <ele>48.2034</ele>
        <time>2012-08-11T16:10:36Z</time>
      </trkpt>
      <trkpt lat="59.9935967" lon="17.7354535">
        <ele>49.6453</ele>
        <time>2012-08-11T16:10:38Z</time>
      </trkpt>
      <trkpt lat="59.9936591" lon="17.7354844">
        <ele>49.6453</ele>
        <time>2012-08-11T16:10:43Z</time>
      </trkpt>
      <trkpt lat="59.9936986" lon="17.7354984">
        <ele>43.3966</ele>
        <time>2012-08-11T16:10:48Z</time>
      </trkpt>
      <trkpt lat="59.9937304" lon="17.7354727">
        <ele>40.5128</ele>
        <time>2012-08-11T16:10:51Z</time>
      </trkpt>
      <trkpt lat="59.9938414" lon="17.7354675">
        <ele>40.9934</ele>
        <time>2012-08-11T16:10:57Z</time>
      </trkpt>
      <trkpt lat="59.9939023" lon="17.735523">
        <ele>39.5513</ele>
        <time>2012-08-11T16:11:02Z</time>
      </trkpt>
      <trkpt lat="59.9939698" lon="17.7355832">
        <ele>40.5128</ele>
        <time>2012-08-11T16:11:08Z</time>
      </trkpt>
      <trkpt lat="59.9940702" lon="17.7356219">
        <ele>43.3966</ele>
        <time>2012-08-11T16:11:12Z</time>
      </trkpt>
      <trkpt lat="59.9941895" lon="17.735639">
        <ele>44.358</ele>
        <time>2012-08-11T16:11:17Z</time>
      </trkpt>
      <trkpt lat="59.9943001" lon="17.7356815">
        <ele>41.474</ele>
        <time>2012-08-11T16:11:23Z</time>
      </trkpt>
      <trkpt lat="59.9943354" lon="17.735724">
        <ele>40.5128</ele>
        <time>2012-08-11T16:11:26Z</time>
      </trkpt>
      <trkpt lat="59.9944394" lon="17.735823">
        <ele>43.8773</ele>
        <time>2012-08-11T16:11:33Z</time>
      </trkpt>
      <trkpt lat="59.9944654" lon="17.7358601">
        <ele>43.8773</ele>
        <time>2012-08-11T16:11:35Z</time>
      </trkpt>
      <trkpt lat="59.9945991" lon="17.7359617">
        <ele>45.3192</ele>
        <time>2012-08-11T16:11:44Z</time>
      </trkpt>
      <trkpt lat="59.9946831" lon="17.7360453">
        <ele>44.358</ele>
        <time>2012-08-11T16:11:51Z</time>
      </trkpt>
      <trkpt lat="59.9947167" lon="17.7360304">
        <ele>42.916</ele>
        <time>2012-08-11T16:11:53Z</time>
      </trkpt>
      <trkpt lat="59.9948395" lon="17.736026">
        <ele>45.3192</ele>
        <time>2012-08-11T16:11:59Z</time>
      </trkpt>
      <trkpt lat="59.9949145" lon="17.7360261">
        <ele>41.474</ele>
        <time>2012-08-11T16:12:06Z</time>
      </trkpt>
      <trkpt lat="59.9949374" lon="17.7360256">
        <ele>42.916</ele>
        <time>2012-08-11T16:12:07Z</time>
      </trkpt>
      <trkpt lat="59.9950325" lon="17.7360852">
        <ele>48.2034</ele>
        <time>2012-08-11T16:12:13Z</time>
      </trkpt>
      <trkpt lat="59.9951704" lon="17.7360086">
        <ele>46.7612</ele>
        <time>2012-08-11T16:12:20Z</time>
      </trkpt>
      <trkpt lat="59.9952837" lon="17.7360085">
        <ele>49.1646</ele>
        <time>2012-08-11T16:12:25Z</time>
      </trkpt>
      <trkpt lat="59.9953331" lon="17.7360404">
        <ele>51.0872</ele>
        <time>2012-08-11T16:12:29Z</time>
      </trkpt>
      <trkpt lat="59.9953544" lon="17.7360718">
        <ele>51.5679</ele>
        <time>2012-08-11T16:12:31Z</time>
      </trkpt>
      <trkpt lat="59.995459" lon="17.7360756">
        <ele>52.0486</ele>
        <time>2012-08-11T16:12:37Z</time>
      </trkpt>
      <trkpt lat="59.99554" lon="17.736053">
        <ele>50.126</ele>
        <time>2012-08-11T16:12:42Z</time>
      </trkpt>
      <trkpt lat="59.9955927" lon="17.7360416">
        <ele>51.0872</ele>
        <time>2012-08-11T16:12:44Z</time>
      </trkpt>
      <trkpt lat="59.9956993" lon="17.7360348">
        <ele>48.2034</ele>
        <time>2012-08-11T16:12:50Z</time>
      </trkpt>
      <trkpt lat="59.9957273" lon="17.7360359">
        <ele>47.7225</ele>
        <time>2012-08-11T16:12:52Z</time>
      </trkpt>
      <trkpt lat="59.9958226" lon="17.736094">
        <ele>49.6453</ele>
        <time>2012-08-11T16:12:59Z</time>
      </trkpt>
      <trkpt lat="59.9959181" lon="17.7361344">
        <ele>52.5292</ele>
        <time>2012-08-11T16:13:05Z</time>
      </trkpt>
      <trkpt lat="59.9960107" lon="17.7361028">
        <ele>49.6453</ele>
        <time>2012-08-11T16:13:11Z</time>
      </trkpt>
      <trkpt lat="59.996103" lon="17.7361081">
        <ele>45.3192</ele>
        <time>2012-08-11T16:13:16Z</time>
      </trkpt>
      <trkpt lat="59.9961475" lon="17.7361193">
        <ele>48.2034</ele>
        <time>2012-08-11T16:13:18Z</time>
      </trkpt>
      <trkpt lat="59.9962164" lon="17.7361968">
        <ele>48.684</ele>
        <time>2012-08-11T16:13:23Z</time>
      </trkpt>
      <trkpt lat="59.9963128" lon="17.7362499">
        <ele>54.9324</ele>
        <time>2012-08-11T16:13:29Z</time>
      </trkpt>
      <trkpt lat="59.9964267" lon="17.7363095">
        <ele>53.4905</ele>
        <time>2012-08-11T16:13:36Z</time>
      </trkpt>
      <trkpt lat="59.9964888" lon="17.7363751">
        <ele>48.2034</ele>
        <time>2012-08-11T16:13:42Z</time>
      </trkpt>
      <trkpt lat="59.9965857" lon="17.7364337">
        <ele>47.7225</ele>
        <time>2012-08-11T16:13:48Z</time>
      </trkpt>
      <trkpt lat="59.996706" lon="17.7365103">
        <ele>48.684</ele>
        <time>2012-08-11T16:13:55Z</time>
      </trkpt>
      <trkpt lat="59.9968059" lon="17.7365553">
        <ele>48.684</ele>
        <time>2012-08-11T16:14:01Z</time>
      </trkpt>
      <trkpt lat="59.9968832" lon="17.7365715">
        <ele>52.0486</ele>
        <time>2012-08-11T16:14:06Z</time>
      </trkpt>
      <trkpt lat="59.9969934" lon="17.7365439">
        <ele>49.1646</ele>
        <time>2012-08-11T16:14:12Z</time>
      </trkpt>
      <trkpt lat="59.9970591" lon="17.736601">
        <ele>49.1646</ele>
        <time>2012-08-11T16:14:17Z</time>
      </trkpt>
      <trkpt lat="59.9970981" lon="17.7366159">
        <ele>48.2034</ele>
        <time>2012-08-11T16:14:19Z</time>
      </trkpt>
      <trkpt lat="59.9972421" lon="17.7366343">
        <ele>52.0486</ele>
        <time>2012-08-11T16:14:26Z</time>
      </trkpt>
      <trkpt lat="59.9973068" lon="17.7366347">
        <ele>54.4518</ele>
        <time>2012-08-11T16:14:29Z</time>
      </trkpt>
      <trkpt lat="59.9973845" lon="17.7366361">
        <ele>55.8938</ele>
        <time>2012-08-11T16:14:34Z</time>
      </trkpt>
      <trkpt lat="59.9975186" lon="17.73662">
        <ele>61.181</ele>
        <time>2012-08-11T16:14:41Z</time>
      </trkpt>
      <trkpt lat="59.997589" lon="17.7366454">
        <ele>59.2584</ele>
        <time>2012-08-11T16:14:47Z</time>
      </trkpt>
      <trkpt lat="59.9976959" lon="17.7366294">
        <ele>56.3745</ele>
        <time>2012-08-11T16:14:53Z</time>
      </trkpt>
      <trkpt lat="59.9977667" lon="17.7366181">
        <ele>53.4905</ele>
        <time>2012-08-11T16:14:58Z</time>
      </trkpt>
      <trkpt lat="59.9977937" lon="17.7366107">
        <ele>51.5679</ele>
        <time>2012-08-11T16:15:00Z</time>
      </trkpt>
      <trkpt lat="59.9978646" lon="17.7366146">
        <ele>48.684</ele>
        <time>2012-08-11T16:15:05Z</time>
      </trkpt>
      <trkpt lat="59.9979408" lon="17.7366125">
        <ele>47.7225</ele>
        <time>2012-08-11T16:15:09Z</time>
      </trkpt>
      <trkpt lat="59.9980842" lon="17.7365575">
        <ele>49.1646</ele>
        <time>2012-08-11T16:15:15Z</time>
      </trkpt>
      <trkpt lat="59.9982041" lon="17.7364624">
        <ele>51.5679</ele>
        <time>2012-08-11T16:15:20Z</time>
      </trkpt>
      <trkpt lat="59.9982314" lon="17.7364369">
        <ele>46.7612</ele>
        <time>2012-08-11T16:15:24Z</time>
      </trkpt>
      <trkpt lat="59.9982946" lon="17.7364707">
        <ele>44.358</ele>
        <time>2012-08-11T16:15:31Z</time>
      </trkpt>
      <trkpt lat="59.9983749" lon="17.7365441">
        <ele>46.7612</ele>
        <time>2012-08-11T16:15:37Z</time>
      </trkpt>
      <trkpt lat="59.9985345" lon="17.7366271">
        <ele>56.8551</ele>
        <time>2012-08-11T16:15:44Z</time>
      </trkpt>
      <trkpt lat="59.9986354" lon="17.7366237">
        <ele>61.181</ele>
        <time>2012-08-11T16:15:49Z</time>
      </trkpt>
      <trkpt lat="59.9986843" lon="17.7366794">
        <ele>61.181</ele>
        <time>2012-08-11T16:15:55Z</time>
      </trkpt>
      <trkpt lat="59.9987224" lon="17.7366983">
        <ele>62.1423</ele>
        <time>2012-08-11T16:15:59Z</time>
      </trkpt>
      <trkpt lat="59.9987645" lon="17.7367119">
        <ele>62.6229</ele>
        <time>2012-08-11T16:16:02Z</time>
      </trkpt>
      <trkpt lat="59.9988244" lon="17.736732">
        <ele>59.2584</ele>
        <time>2012-08-11T16:16:07Z</time>
      </trkpt>
      <trkpt lat="59.9988964" lon="17.7367752">
        <ele>55.8938</ele>
        <time>2012-08-11T16:16:13Z</time>
      </trkpt>
      <trkpt lat="59.9989458" lon="17.7367088">
        <ele>55.8938</ele>
        <time>2012-08-11T16:16:16Z</time>
      </trkpt>
      <trkpt lat="59.9990819" lon="17.7367488">
        <ele>58.2971</ele>
        <time>2012-08-11T16:16:24Z</time>
      </trkpt>
      <trkpt lat="59.9991637" lon="17.7367442">
        <ele>57.3358</ele>
        <time>2012-08-11T16:16:29Z</time>
      </trkpt>
      <trkpt lat="59.9992369" lon="17.736758">
        <ele>56.8551</ele>
        <time>2012-08-11T16:16:34Z</time>
      </trkpt>
      <trkpt lat="59.9992985" lon="17.7367794">
        <ele>57.8165</ele>
        <time>2012-08-11T16:16:39Z</time>
      </trkpt>
      <trkpt lat="59.9993618" lon="17.7368233">
        <ele>56.8551</ele>
        <time>2012-08-11T16:16:44Z</time>
      </trkpt>
      <trkpt lat="59.9994022" lon="17.7368965">
        <ele>55.8938</ele>
        <time>2012-08-11T16:16:50Z</time>
      </trkpt>
      <trkpt lat="59.9994694" lon="17.7368785">
        <ele>55.4131</ele>
        <time>2012-08-11T16:16:53Z</time>
      </trkpt>
      <trkpt lat="59.9996492" lon="17.736888">
        <ele>57.8165</ele>
        <time>2012-08-11T16:17:01Z</time>
      </trkpt>
      <trkpt lat="59.9997858" lon="17.7368995">
        <ele>60.7003</ele>
        <time>2012-08-11T16:17:07Z</time>
      </trkpt>
      <trkpt lat="59.9998356" lon="17.7369816">
        <ele>58.7777</ele>
        <time>2012-08-11T16:17:12Z</time>
      </trkpt>
      <trkpt lat="59.9998957" lon="17.7370108">
        <ele>56.3745</ele>
        <time>2012-08-11T16:17:17Z</time>
      </trkpt>
      <trkpt lat="59.9999635" lon="17.7369892">
        <ele>53.9712</ele>
        <time>2012-08-11T16:17:22Z</time>
      </trkpt>
      <trkpt lat="60.0000522" lon="17.7369635">
        <ele>52.0486</ele>
        <time>2012-08-11T16:17:28Z</time>
      </trkpt>
      <trkpt lat="60.0001046" lon="17.7369922">
        <ele>51.0872</ele>
        <time>2012-08-11T16:17:31Z</time>
      </trkpt>
      <trkpt lat="60.00018" lon="17.7369081">
        <ele>48.2034</ele>
        <time>2012-08-11T16:17:37Z</time>
      </trkpt>
      <trkpt lat="60.0002951" lon="17.7368205">
        <ele>48.684</ele>
        <time>2012-08-11T16:17:43Z</time>
      </trkpt>
      <trkpt lat="60.0004012" lon="17.7367573">
        <ele>46.7612</ele>
        <time>2012-08-11T16:17:49Z</time>
      </trkpt>
      <trkpt lat="60.0004754" lon="17.7366612">
        <ele>45.7999</ele>
        <time>2012-08-11T16:17:55Z</time>
      </trkpt>
      <trkpt lat="60.0005564" lon="17.7366342">
        <ele>43.8773</ele>
        <time>2012-08-11T16:18:00Z</time>
      </trkpt>
      <trkpt lat="60.0006504" lon="17.7365734">
        <ele>43.3966</ele>
        <time>2012-08-11T16:18:05Z</time>
      </trkpt>
      <trkpt lat="60.0007275" lon="17.7364906">
        <ele>41.474</ele>
        <time>2012-08-11T16:18:10Z</time>
      </trkpt>
      <trkpt lat="60.0007791" lon="17.7364264">
        <ele>41.474</ele>
        <time>2012-08-11T16:18:15Z</time>
      </trkpt>
      <trkpt lat="60.0008107" lon="17.7363629">
        <ele>39.5513</ele>
        <time>2012-08-11T16:18:19Z</time>
      </trkpt>
      <trkpt lat="60.0008871" lon="17.7363229">
        <ele>38.5901</ele>
        <time>2012-08-11T16:18:25Z</time>
      </trkpt>
      <trkpt lat="60.0009632" lon="17.7362815">
        <ele>39.5513</ele>
        <time>2012-08-11T16:18:30Z</time>
      </trkpt>
      <trkpt lat="60.0009773" lon="17.7362715">
        <ele>39.5513</ele>
        <time>2012-08-11T16:18:31Z</time>
      </trkpt>
      <trkpt lat="60.0010763" lon="17.7362534">
        <ele>42.4354</ele>
        <time>2012-08-11T16:18:38Z</time>
      </trkpt>
      <trkpt lat="60.0011808" lon="17.7362359">
        <ele>48.684</ele>
        <time>2012-08-11T16:18:44Z</time>
      </trkpt>
      <trkpt lat="60.0012129" lon="17.7362364">
        <ele>50.6066</ele>
        <time>2012-08-11T16:18:47Z</time>
      </trkpt>
      <trkpt lat="60.0013039" lon="17.7361493">
        <ele>50.126</ele>
        <time>2012-08-11T16:18:54Z</time>
      </trkpt>
      <trkpt lat="60.0013131" lon="17.7361379">
        <ele>51.0872</ele>
        <time>2012-08-11T16:18:55Z</time>
      </trkpt>
      <trkpt lat="60.0013336" lon="17.7361388">
        <ele>52.5292</ele>
        <time>2012-08-11T16:18:57Z</time>
      </trkpt>
      <trkpt lat="60.0013923" lon="17.7361317">
        <ele>54.4518</ele>
        <time>2012-08-11T16:19:01Z</time>
      </trkpt>
      <trkpt lat="60.0014349" lon="17.736044">
        <ele>50.126</ele>
        <time>2012-08-11T16:19:06Z</time>
      </trkpt>
      <trkpt lat="60.001523" lon="17.7359389">
        <ele>50.6066</ele>
        <time>2012-08-11T16:19:12Z</time>
      </trkpt>
      <trkpt lat="60.0015783" lon="17.7358335">
        <ele>48.2034</ele>
        <time>2012-08-11T16:19:18Z</time>
      </trkpt>
      <trkpt lat="60.0015876" lon="17.7358149">
        <ele>48.2034</ele>
        <time>2012-08-11T16:19:19Z</time>
      </trkpt>
      <trkpt lat="60.0016611" lon="17.7357604">
        <ele>48.2034</ele>
        <time>2012-08-11T16:19:24Z</time>
      </trkpt>
      <trkpt lat="60.0017501" lon="17.7356107">
        <ele>48.2034</ele>
        <time>2012-08-11T16:19:30Z</time>
      </trkpt>
      <trkpt lat="60.0018361" lon="17.7354546">
        <ele>46.7612</ele>
        <time>2012-08-11T16:19:35Z</time>
      </trkpt>
      <trkpt lat="60.0018664" lon="17.735419">
        <ele>47.7225</ele>
        <time>2012-08-11T16:19:36Z</time>
      </trkpt>
      <trkpt lat="60.0019099" lon="17.7352388">
        <ele>44.8386</ele>
        <time>2012-08-11T16:19:40Z</time>
      </trkpt>
      <trkpt lat="60.0019503" lon="17.7351134">
        <ele>40.9934</ele>
        <time>2012-08-11T16:19:45Z</time>
      </trkpt>
      <trkpt lat="60.0019811" lon="17.7350305">
        <ele>41.474</ele>
        <time>2012-08-11T16:19:50Z</time>
      </trkpt>
      <trkpt lat="60.0020352" lon="17.7348486">
        <ele>44.358</ele>
        <time>2012-08-11T16:19:56Z</time>
      </trkpt>
      <trkpt lat="60.0020614" lon="17.7347219">
        <ele>44.358</ele>
        <time>2012-08-11T16:20:00Z</time>
      </trkpt>
      <trkpt lat="60.0020793" lon="17.7345865">
        <ele>44.8386</ele>
        <time>2012-08-11T16:20:06Z</time>
      </trkpt>
      <trkpt lat="60.0020971" lon="17.7344285">
        <ele>46.7612</ele>
        <time>2012-08-11T16:20:12Z</time>
      </trkpt>
      <trkpt lat="60.0021102" lon="17.7342704">
        <ele>47.2418</ele>
        <time>2012-08-11T16:20:19Z</time>
      </trkpt>
      <trkpt lat="60.0021409" lon="17.7341198">
        <ele>49.6453</ele>
        <time>2012-08-11T16:20:26Z</time>
      </trkpt>
      <trkpt lat="60.0021609" lon="17.7339912">
        <ele>51.0872</ele>
        <time>2012-08-11T16:20:29Z</time>
      </trkpt>
      <trkpt lat="60.0021888" lon="17.7338474">
        <ele>51.5679</ele>
        <time>2012-08-11T16:20:35Z</time>
      </trkpt>
      <trkpt lat="60.0022113" lon="17.7337208">
        <ele>50.6066</ele>
        <time>2012-08-11T16:20:41Z</time>
      </trkpt>
      <trkpt lat="60.0022227" lon="17.733583">
        <ele>49.6453</ele>
        <time>2012-08-11T16:20:47Z</time>
      </trkpt>
      <trkpt lat="60.0022109" lon="17.7335303">
        <ele>49.6453</ele>
        <time>2012-08-11T16:20:53Z</time>
      </trkpt>
      <trkpt lat="60.0022062" lon="17.7335159">
        <ele>47.2418</ele>
        <time>2012-08-11T16:20:59Z</time>
      </trkpt>
      <trkpt lat="60.0021839" lon="17.7335298">
        <ele>42.916</ele>
        <time>2012-08-11T16:21:07Z</time>
      </trkpt>
      <trkpt lat="60.0022263" lon="17.7333359">
        <ele>39.0707</ele>
        <time>2012-08-11T16:21:20Z</time>
      </trkpt>
      <trkpt lat="60.0022562" lon="17.7332123">
        <ele>38.5901</ele>
        <time>2012-08-11T16:21:24Z</time>
      </trkpt>
      <trkpt lat="60.0022974" lon="17.7330424">
        <ele>36.6675</ele>
        <time>2012-08-11T16:21:28Z</time>
      </trkpt>
      <trkpt lat="60.0023335" lon="17.7327902">
        <ele>36.6675</ele>
        <time>2012-08-11T16:21:33Z</time>
      </trkpt>
      <trkpt lat="60.0023683" lon="17.7324549">
        <ele>36.6675</ele>
        <time>2012-08-11T16:21:40Z</time>
      </trkpt>
      <trkpt lat="60.002404" lon="17.7322771">
        <ele>36.6675</ele>
        <time>2012-08-11T16:21:46Z</time>
      </trkpt>
      <trkpt lat="60.0024404" lon="17.7321142">
        <ele>36.6675</ele>
        <time>2012-08-11T16:21:51Z</time>
      </trkpt>
      <trkpt lat="60.0025018" lon="17.7319109">
        <ele>35.2255</ele>
        <time>2012-08-11T16:21:58Z</time>
      </trkpt>
      <trkpt lat="60.0025405" lon="17.7317748">
        <ele>34.2642</ele>
        <time>2012-08-11T16:22:02Z</time>
      </trkpt>
      <trkpt lat="60.0025849" lon="17.7314168">
        <ele>33.7834</ele>
        <time>2012-08-11T16:22:07Z</time>
      </trkpt>
      <trkpt lat="60.0026439" lon="17.7310858">
        <ele>33.7834</ele>
        <time>2012-08-11T16:22:14Z</time>
      </trkpt>
      <trkpt lat="60.0027055" lon="17.7308196">
        <ele>33.3029</ele>
        <time>2012-08-11T16:22:20Z</time>
      </trkpt>
      <trkpt lat="60.0027608" lon="17.7306879">
        <ele>31.3801</ele>
        <time>2012-08-11T16:22:24Z</time>
      </trkpt>
      <trkpt lat="60.0028255" lon="17.7305409">
        <ele>31.8607</ele>
        <time>2012-08-11T16:22:30Z</time>
      </trkpt>
      <trkpt lat="60.0029154" lon="17.7304285">
        <ele>31.8607</ele>
        <time>2012-08-11T16:22:37Z</time>
      </trkpt>
      <trkpt lat="60.0029825" lon="17.730345">
        <ele>31.8607</ele>
        <time>2012-08-11T16:22:43Z</time>
      </trkpt>
      <trkpt lat="60.0030241" lon="17.7303207">
        <ele>31.8607</ele>
        <time>2012-08-11T16:22:47Z</time>
      </trkpt>
      <trkpt lat="60.0031214" lon="17.7301993">
        <ele>30.4188</ele>
        <time>2012-08-11T16:22:55Z</time>
      </trkpt>
      <trkpt lat="60.0032122" lon="17.7299233">
        <ele>30.4188</ele>
        <time>2012-08-11T16:23:02Z</time>
      </trkpt>
      <trkpt lat="60.0032544" lon="17.7298474">
        <ele>30.4188</ele>
        <time>2012-08-11T16:23:06Z</time>
      </trkpt>
      <trkpt lat="60.0033478" lon="17.7297248">
        <ele>30.8995</ele>
        <time>2012-08-11T16:23:12Z</time>
      </trkpt>
      <trkpt lat="60.0034194" lon="17.7295572">
        <ele>31.3801</ele>
        <time>2012-08-11T16:23:17Z</time>
      </trkpt>
      <trkpt lat="60.0034856" lon="17.7295404">
        <ele>31.8607</ele>
        <time>2012-08-11T16:23:23Z</time>
      </trkpt>
      <trkpt lat="60.0035308" lon="17.7294415">
        <ele>32.8223</ele>
        <time>2012-08-11T16:23:28Z</time>
      </trkpt>
      <trkpt lat="60.0036068" lon="17.7292651">
        <ele>32.8223</ele>
        <time>2012-08-11T16:23:35Z</time>
      </trkpt>
      <trkpt lat="60.0036812" lon="17.7291051">
        <ele>32.3416</ele>
        <time>2012-08-11T16:23:41Z</time>
      </trkpt>
      <trkpt lat="60.003781" lon="17.7290095">
        <ele>33.3029</ele>
        <time>2012-08-11T16:23:49Z</time>
      </trkpt>
      <trkpt lat="60.0038626" lon="17.7289091">
        <ele>33.7834</ele>
        <time>2012-08-11T16:23:55Z</time>
      </trkpt>
      <trkpt lat="60.0038891" lon="17.72889">
        <ele>32.3416</ele>
        <time>2012-08-11T16:23:57Z</time>
      </trkpt>
    </trkseg>
  </trk>
</gpx>